Terminal Aerodrome Forecast
Issued by NWS

Home | Current Version | Previous Version | Text Only | Print | Product List | Glossary On
Versions: 1 2 3 4 5 6 7 8 9 10 11 12 13 14 15
484
FTUS46 KHNX 062321
TAFMER
TAF
KMER 062321Z 0700/0724 33004KT P6SM SCT250
     FM070600 VRB03KT 4SM BR SKC
     FM071000 00000KT 2SM BR SKC
      TEMPO 0713/0717 1/2SM FG VV002
     FM071800 00000KT 4SM HZ SKC
     FM072000 VRB03KT P6SM SKC=

USA.gov is the U.S. government's official web portal to all federal, state and local government web resources and services.